This is the latest recevied weather packets stored in our database for station/object IZ2MHJ-3. If no packets are shown the sender has not sent any weather packets the latest 10 day(s).
| Time | Temp. | Humidity | Pressure | Rain* | Wind** | Luminosity | Snow |
|---|---|---|---|---|---|---|---|
| 1777878294 | 21.67° C | 42% | 1019 hPa | - | - | - | - |
| 1777877093 | 20° C | 47% | 1019 hPa | - | - | - | - |
| 1777875893 | 17.22° C | 56% | 1019.2 hPa | - | - | - | - |
| 1777874693 | 16.11° C | 57% | 1019.3 hPa | - | - | - | - |
| 1777873492 | 16.11° C | 57% | 1019.3 hPa | - | - | - | - |
| 1777872292 | 15.56° C | 58% | 1019.2 hPa | - | - | - | - |
| 1777871092 | 15° C | 60% | 1018.8 hPa | - | - | - | - |
| 1777869891 | 13.89° C | 63% | 1018.7 hPa | - | - | - | - |
| 1777868692 | 13.33° C | 62% | 1018.7 hPa | - | - | - | - |
| 1777867491 | 13.33° C | 63% | 1018.5 hPa | - | - | - | - |
| 1777866291 | 13.33° C | 62% | 1018.5 hPa | - | - | - | - |
| 1777865090 | 13.89° C | 63% | 1018.5 hPa | - | - | - | - |
| 1777863890 | 13.89° C | 62% | 1018.5 hPa | - | - | - | - |
| 1777862689 | 13.89° C | 62% | 1018.6 hPa | - | - | - | - |
| 1777861489 | 14.44° C | 61% | 1018.6 hPa | - | - | - | - |
| 1777860289 | 15° C | 60% | 1018.4 hPa | - | - | - | - |
| 1777859089 | 14.44° C | 61% | 1018.3 hPa | - | - | - | - |
| 1777857888 | 15° C | 58% | 1018.4 hPa | - | - | - | - |
| 1777856688 | 16.11° C | 57% | 1018.5 hPa | - | - | - | - |
| 1777855488 | 16.11° C | 56% | 1018.7 hPa | - | - | - | - |
| 1777854287 | 16.67° C | 56% | 1018.8 hPa | - | - | - | - |
| 1777853087 | 16.67° C | 55% | 1019 hPa | - | - | - | - |
| 1777851887 | 17.22° C | 54% | 1019 hPa | - | - | - | - |
| 1777850686 | 17.22° C | 52% | 1019 hPa | - | - | - | - |
| 1777849486 | 17.78° C | 51% | 1019 hPa | - | - | - | - |
* Rain since midnight (hover to see other rain measurements)
** Current wind speed in m/s (hover to see current wind gust speed)